Taraz Airport
UADD : now visible

Airfield :











YOU CAN JOIN US ON...

 
LOGIN :

Register | Disclaimer

   EN    FR    IT 

 









Legend :    VFR   Marginal VFR   IFR   Intensive IFR   Very Intensive IFR
Visi :
Ceiling :
>= 8 km
>= 3000ft
5 to 8 km
1000 to 3000 ft
1500m to 5 km
500 to 1000 ft
800 to 1500m
200 to 500 ft
< 800m
< 200 ft
Symbols :   Thunderstorms  Fog  Heavy snow  Heavy precipitations  Wind > 20 kt






- Airport Elevation : 2184 ft
- IATA code : DMB


UADD - Taraz

CURRENT METAR :
  • 101330Z 12003MPS 9999 NSC 06/M02 Q1021 R13/0///65 NOSIG RMK QFE708/0945

EXPIRED METARs :
  • 101300Z 10003MPS 9999 NSC 07/M01 Q1021 R13/0///65 NOSIG RMK QFE708/0945
  • 101230Z 08004MPS 040V120 9999 NSC 08/M02 Q1021 R13/0///65 NOSIG RMK QFE709/0945
  • 101200Z 08004MPS 030V130 9999 NSC 09/M01 Q1021 R13/0///65 NOSIG RMK QFE709/0945
  • 101130Z 08004MPS 030V120 9999 NSC 09/M01 Q1022 R13/0///65 NOSIG RMK QFE709/0946
  • 101100Z 06004MPS 010V110 9999 NSC 08/M01 Q1022 R13/0///65 NOSIG RMK QFE709/0946
  • 101030Z 07004MPS 040V120 9999 NSC 09/M01 Q1022 R13/0///65 NOSIG RMK QFE709/0946

TAF TAF UADD
Valid from the 10 at 12:00 until the 10 at 21:00 UTC


101100Z 1012/1021 04005G10MPS 9999 SCT050 BKN100



MET'MAP, your aeronautical weather chart ! - Copyright ORBIFLY December 2007 - Disclaimer

ORBIFLY MET'MAP TEAM :

Programming & Development : Alexandra Zaïnal
Concept & original design : Baudouin d'Aumeries
Assistance for programming : Marc-Olivier Méhu
Technical & hardware support : Manuel Goepfert

Contact : metmap@orbifly.com




SOURCES & CREDITS :

   NOAA       Earth
Advisory